Time;durP1;ratioP1;P1;durP2;ratioP2;P2;SDS_P1;SDS_P2;PMS_P1;PMS_P2;Temp;Humidity;BMP_temperature;BMP_pressure;BME280_temperature;BME280_humidity;BME280_pressure;Samples;Min_cycle;Max_cycle;Signal;HPM_P1;HPM_P2
2021/08/21 00:02:08;;;;;;;9.13;5.32;;;;;;;;;;4463310;32;20295;-59
2021/08/21 00:04:37;;;;;;;13.75;9.80;;;;;;;;;;4449121;32;20266;-59
2021/08/21 00:07:06;;;;;;;26.23;19.08;;;;;;;;;;4448244;32;20300;-58
2021/08/21 00:09:38;;;;;;;19.52;14.73;;;;;;;;;;4447583;32;20288;-58
2021/08/21 00:12:05;;;;;;;12.13;10.25;;;;;;;;;;4462181;32;20240;-58
2021/08/21 00:14:31;;;;;;;14.95;10.40;;;;;;;;;;4458399;32;20632;-57
2021/08/21 00:16:56;;;;;;;13.18;9.45;;;;;;;;;;4464216;32;20344;-57
2021/08/21 00:19:22;;;;;;;11.32;8.40;;;;;;;;;;4449619;32;20220;-57
2021/08/21 00:21:48;;;;;;;11.77;8.30;;;;;;;;;;4447920;32;20230;-58
2021/08/21 00:24:14;;;;;;;10.73;7.10;;;;;;;;;;4447603;32;20259;-58
2021/08/21 00:26:39;;;;;;;7.47;5.37;;;;;;;;;;4447883;32;20666;-58
2021/08/21 00:29:05;;;;;;;6.40;4.78;;;;;;;;;;4447939;32;20224;-58
2021/08/21 00:31:30;;;;;;;5.70;3.75;;;;;;;;;;4449833;32;20291;-58
2021/08/21 00:33:56;;;;;;;5.35;4.18;;;;;;;;;;4450262;32;20252;-58
2021/08/21 00:36:21;;;;;;;9.95;4.60;;;;;;;;;;4450889;32;20303;-57
2021/08/21 00:38:47;;;;;;;8.40;4.93;;;;;;;;;;4447728;32;20244;-58
2021/08/21 00:41:12;;;;;;;6.57;4.20;;;;;;;;;;4449994;32;20275;-58
2021/08/21 00:43:39;;;;;;;8.60;5.07;;;;;;;;;;4454640;32;20311;-58
2021/08/21 00:46:04;;;;;;;8.35;4.45;;;;;;;;;;4447761;32;20269;-58
2021/08/21 00:48:30;;;;;;;7.50;5.05;;;;;;;;;;4447790;32;20268;-58
2021/08/21 00:50:58;;;;;;;6.00;4.90;;;;;;;;;;4447437;32;20292;-60
2021/08/21 00:53:25;;;;;;;7.72;5.97;;;;;;;;;;4460707;32;20280;-58
2021/08/21 00:55:50;;;;;;;9.07;6.00;;;;;;;;;;4463476;32;20321;-56
2021/08/21 00:58:18;;;;;;;10.45;4.78;;;;;;;;;;4463537;32;20556;-57
2021/08/21 01:00:44;;;;;;;5.82;4.72;;;;;;;;;;4462732;32;20320;-57
2021/08/21 01:03:09;;;;;;;5.72;4.45;;;;;;;;;;4463323;32;20777;-57
2021/08/21 01:05:35;;;;;;;6.07;4.18;;;;;;;;;;4462920;32;20352;-58
2021/08/21 01:08:00;;;;;;;6.25;4.47;;;;;;;;;;4462921;32;20334;-57
2021/08/21 01:10:26;;;;;;;4.97;3.72;;;;;;;;;;4462019;32;20307;-58
2021/08/21 01:12:53;;;;;;;7.90;4.80;;;;;;;;;;4460168;32;20291;-57
2021/08/21 01:15:23;;;;;;;6.85;4.65;;;;;;;;;;4462899;32;20328;-57
2021/08/21 01:17:51;;;;;;;8.25;4.78;;;;;;;;;;4463121;32;20302;-57
2021/08/21 01:20:16;;;;;;;6.12;4.70;;;;;;;;;;4462534;32;20333;-57
2021/08/21 01:22:42;;;;;;;7.28;5.00;;;;;;;;;;4462870;32;20232;-57
2021/08/21 01:25:24;;;;;;;5.03;4.35;;;;;;;;;;4463281;32;20414;-58
2021/08/21 01:27:49;;;;;;;5.40;4.85;;;;;;;;;;4459802;32;20577;-58
2021/08/21 01:30:15;;;;;;;7.37;5.45;;;;;;;;;;4451940;32;20223;-58
2021/08/21 01:32:40;;;;;;;5.25;4.47;;;;;;;;;;4460255;32;20291;-60
2021/08/21 01:35:07;;;;;;;5.28;4.53;;;;;;;;;;4462970;32;20596;-59
2021/08/21 01:37:32;;;;;;;7.07;5.30;;;;;;;;;;4464059;32;20231;-58
2021/08/21 01:39:58;;;;;;;9.90;4.60;;;;;;;;;;4465881;32;20363;-57
2021/08/21 01:42:25;;;;;;;7.18;5.00;;;;;;;;;;4464886;32;20284;-58
2021/08/21 01:44:52;;;;;;;6.45;4.20;;;;;;;;;;4450679;32;20216;-58
2021/08/21 01:47:18;;;;;;;7.85;5.25;;;;;;;;;;4450709;32;20642;-58
2021/08/21 01:49:50;;;;;;;7.40;4.95;;;;;;;;;;4464848;32;20232;-60
2021/08/21 01:52:16;;;;;;;10.48;4.80;;;;;;;;;;4465176;32;20410;-58
2021/08/21 01:54:41;;;;;;;5.40;4.03;;;;;;;;;;4464097;32;20905;-59
2021/08/21 01:57:07;;;;;;;6.70;4.55;;;;;;;;;;4463400;32;20684;-59
2021/08/21 01:59:40;;;;;;;5.60;4.15;;;;;;;;;;4464873;32;20574;-58
2021/08/21 02:02:18;;;;;;;7.82;4.10;;;;;;;;;;4465404;32;20258;-58
2021/08/21 02:04:43;;;;;;;5.30;4.05;;;;;;;;;;4464879;32;20568;-58
2021/08/21 02:07:09;;;;;;;5.43;3.97;;;;;;;;;;4465759;32;20267;-58
2021/08/21 02:09:35;;;;;;;5.60;4.12;;;;;;;;;;4456375;32;20311;-58
2021/08/21 02:12:03;;;;;;;4.25;3.75;;;;;;;;;;4465830;32;20276;-58
2021/08/21 02:14:29;;;;;;;6.00;4.68;;;;;;;;;;4450857;32;20332;-57
2021/08/21 02:17:00;;;;;;;6.43;4.37;;;;;;;;;;4450465;32;20427;-57
2021/08/21 02:19:26;;;;;;;5.70;3.87;;;;;;;;;;4462411;32;20232;-58
2021/08/21 02:21:54;;;;;;;7.25;4.95;;;;;;;;;;4465308;32;20610;-59
2021/08/21 02:24:24;;;;;;;9.40;5.07;;;;;;;;;;4464652;32;20276;-57
2021/08/21 02:26:54;;;;;;;5.57;4.55;;;;;;;;;;4465529;32;20866;-57
2021/08/21 02:29:20;;;;;;;4.95;4.45;;;;;;;;;;4455676;32;20266;-58
2021/08/21 02:31:46;;;;;;;6.60;4.47;;;;;;;;;;4453346;32;20283;-60
2021/08/21 02:34:11;;;;;;;7.65;5.47;;;;;;;;;;4464743;32;20208;-59
2021/08/21 02:36:37;;;;;;;5.95;4.75;;;;;;;;;;4465074;32;20275;-59
2021/08/21 02:39:03;;;;;;;5.68;4.50;;;;;;;;;;4452860;32;20264;-59
2021/08/21 02:41:28;;;;;;;10.50;6.22;;;;;;;;;;4453704;32;20743;-59
2021/08/21 02:43:54;;;;;;;17.37;12.00;;;;;;;;;;4464381;32;20267;-59
2021/08/21 02:46:19;;;;;;;10.18;8.10;;;;;;;;;;4464325;32;20275;-58
2021/08/21 02:48:45;;;;;;;12.07;9.30;;;;;;;;;;4464034;32;20530;-59
2021/08/21 02:51:11;;;;;;;13.82;11.07;;;;;;;;;;4464191;32;20627;-59
2021/08/21 02:53:36;;;;;;;19.95;11.23;;;;;;;;;;4464638;32;20309;-58
2021/08/21 02:56:02;;;;;;;13.88;10.02;;;;;;;;;;4463645;32;20309;-59
2021/08/21 02:58:27;;;;;;;9.93;6.22;;;;;;;;;;4462829;32;20625;-59
2021/08/21 03:00:53;;;;;;;7.55;5.70;;;;;;;;;;4464860;32;20302;-58
2021/08/21 03:03:19;;;;;;;13.20;5.68;;;;;;;;;;4458242;32;20283;-58
2021/08/21 03:05:44;;;;;;;5.82;5.12;;;;;;;;;;4448491;32;20328;-59
2021/08/21 03:08:10;;;;;;;7.05;4.97;;;;;;;;;;4457410;32;20208;-58
2021/08/21 03:10:35;;;;;;;6.82;5.05;;;;;;;;;;4448954;32;20272;-59
2021/08/21 03:13:02;;;;;;;6.82;4.65;;;;;;;;;;4449039;32;20698;-58
2021/08/21 03:15:28;;;;;;;5.32;4.75;;;;;;;;;;4454363;32;20274;-59
2021/08/21 03:17:55;;;;;;;9.35;5.22;;;;;;;;;;4463313;32;20267;-58
2021/08/21 03:20:21;;;;;;;12.73;4.10;;;;;;;;;;4462548;32;20313;-58
2021/08/21 03:22:47;;;;;;;5.97;4.10;;;;;;;;;;4464416;32;20313;-59
2021/08/21 03:25:12;;;;;;;8.82;5.12;;;;;;;;;;4464039;32;20254;-58
2021/08/21 03:27:38;;;;;;;6.45;4.07;;;;;;;;;;4461857;32;20403;-59
2021/08/21 03:30:05;;;;;;;10.38;4.35;;;;;;;;;;4448720;32;20242;-58
2021/08/21 03:32:31;;;;;;;6.07;4.85;;;;;;;;;;4455534;32;20200;-58
2021/08/21 03:34:56;;;;;;;7.90;4.15;;;;;;;;;;4447175;32;20382;-58
2021/08/21 03:37:22;;;;;;;4.00;3.58;;;;;;;;;;4462239;32;20669;-58
2021/08/21 03:39:47;;;;;;;5.07;3.83;;;;;;;;;;4448826;32;20758;-58
2021/08/21 03:42:13;;;;;;;11.27;4.57;;;;;;;;;;4448572;32;20272;-58
2021/08/21 03:44:39;;;;;;;6.47;4.32;;;;;;;;;;4453199;32;20607;-58
2021/08/21 03:47:05;;;;;;;6.47;3.97;;;;;;;;;;4463458;32;20196;-57
2021/08/21 03:49:30;;;;;;;5.65;4.35;;;;;;;;;;4454715;32;20224;-57
2021/08/21 03:51:56;;;;;;;6.90;4.65;;;;;;;;;;4463912;32;20310;-57
2021/08/21 03:54:21;;;;;;;11.88;5.15;;;;;;;;;;4463803;32;20216;-58
2021/08/21 03:56:47;;;;;;;5.57;4.15;;;;;;;;;;4463452;32;20241;-57
2021/08/21 03:59:12;;;;;;;6.75;4.97;;;;;;;;;;4463594;32;20262;-57
2021/08/21 04:01:38;;;;;;;5.43;3.62;;;;;;;;;;4463713;32;20267;-57
2021/08/21 04:04:03;;;;;;;4.07;3.62;;;;;;;;;;4463744;32;20215;-57
2021/08/21 04:06:29;;;;;;;11.25;5.03;;;;;;;;;;4453485;32;20216;-57
2021/08/21 04:08:54;;;;;;;6.53;4.32;;;;;;;;;;4453307;32;20244;-58
2021/08/21 04:11:20;;;;;;;8.00;4.53;;;;;;;;;;4462665;32;20576;-58
2021/08/21 04:13:45;;;;;;;6.47;4.05;;;;;;;;;;4463195;32;20248;-58
2021/08/21 04:16:11;;;;;;;6.78;4.47;;;;;;;;;;4462717;32;20347;-57
2021/08/21 04:18:36;;;;;;;5.53;4.15;;;;;;;;;;4454578;32;20596;-57
2021/08/21 04:21:03;;;;;;;5.97;4.12;;;;;;;;;;4461506;32;20671;-57
2021/08/21 04:23:28;;;;;;;9.38;4.65;;;;;;;;;;4463730;32;20249;-58
2021/08/21 04:25:59;;;;;;;5.10;4.15;;;;;;;;;;4463932;32;20279;-58
2021/08/21 04:28:29;;;;;;;7.18;4.32;;;;;;;;;;4463037;32;20678;-58
2021/08/21 04:30:55;;;;;;;5.30;4.07;;;;;;;;;;4463743;32;20319;-58
2021/08/21 04:33:20;;;;;;;7.20;4.28;;;;;;;;;;4456619;32;20296;-58
2021/08/21 04:35:46;;;;;;;6.75;4.43;;;;;;;;;;4448131;32;20674;-59
2021/08/21 04:38:11;;;;;;;5.90;4.12;;;;;;;;;;4447967;32;20359;-60
2021/08/21 04:40:37;;;;;;;7.62;5.20;;;;;;;;;;4462225;32;20321;-60
2021/08/21 04:43:02;;;;;;;5.75;4.28;;;;;;;;;;4458739;32;20279;-60
2021/08/21 04:45:28;;;;;;;8.73;5.70;;;;;;;;;;4452259;32;20310;-59
2021/08/21 04:47:53;;;;;;;7.35;4.87;;;;;;;;;;4463124;32;20201;-60
2021/08/21 04:50:19;;;;;;;9.10;5.50;;;;;;;;;;4462678;32;20196;-60
2021/08/21 04:52:44;;;;;;;7.68;4.68;;;;;;;;;;4463591;32;20286;-61
2021/08/21 04:55:10;;;;;;;7.75;5.40;;;;;;;;;;4463975;32;20189;-60
2021/08/21 04:57:36;;;;;;;10.35;6.20;;;;;;;;;;4462624;32;20294;-60
2021/08/21 05:00:05;;;;;;;9.07;6.22;;;;;;;;;;4463162;32;20224;-60
2021/08/21 05:02:31;;;;;;;8.57;5.90;;;;;;;;;;4461676;32;20621;-60
2021/08/21 05:04:56;;;;;;;11.38;5.20;;;;;;;;;;4447784;32;20285;-60
2021/08/21 05:07:22;;;;;;;8.27;4.50;;;;;;;;;;4456430;32;20227;-60
2021/08/21 05:09:47;;;;;;;10.70;5.05;;;;;;;;;;4447550;32;20280;-58
2021/08/21 05:12:13;;;;;;;5.87;4.10;;;;;;;;;;4448900;32;20286;-58
2021/08/21 05:14:38;;;;;;;9.30;5.10;;;;;;;;;;4464808;32;20256;-57
2021/08/21 05:17:05;;;;;;;6.30;4.62;;;;;;;;;;4466051;32;20252;-57
2021/08/21 05:19:53;;;;;;;12.57;4.90;;;;;;;;;;4451340;32;20216;-59
2021/08/21 05:24:48;;;;;;;9.35;5.72;;;;;;;;;;4452108;32;20312;-58
2021/08/21 05:27:13;;;;;;;13.27;5.75;;;;;;;;;;4465413;32;20307;-58
2021/08/21 05:29:39;;;;;;;11.25;5.47;;;;;;;;;;4449465;32;20260;-58
2021/08/21 05:32:05;;;;;;;11.10;5.68;;;;;;;;;;4456231;32;20275;-59
2021/08/21 05:34:31;;;;;;;6.45;5.12;;;;;;;;;;4466033;32;20670;-59
2021/08/21 05:36:56;;;;;;;9.98;6.07;;;;;;;;;;4465989;32;20208;-58
2021/08/21 05:39:22;;;;;;;8.95;6.18;;;;;;;;;;4451306;32;20220;-60
2021/08/21 05:41:47;;;;;;;13.70;6.68;;;;;;;;;;4454719;32;20406;-58
2021/08/21 05:44:12;;;;;;;10.25;6.50;;;;;;;;;;4457816;32;20248;-58
2021/08/21 05:46:38;;;;;;;14.60;7.10;;;;;;;;;;4466491;32;20749;-58
2021/08/21 05:49:03;;;;;;;10.00;6.32;;;;;;;;;;4456595;32;20219;-57
2021/08/21 05:51:29;;;;;;;9.57;6.40;;;;;;;;;;4464568;32;20295;-58
2021/08/21 05:53:58;;;;;;;11.40;7.05;;;;;;;;;;4458563;32;20349;-59
2021/08/21 05:56:24;;;;;;;8.68;6.32;;;;;;;;;;4464705;32;20233;-60
2021/08/21 05:58:50;;;;;;;8.35;6.60;;;;;;;;;;4454428;32;20245;-58
2021/08/21 06:01:15;;;;;;;9.88;6.47;;;;;;;;;;4462963;32;20299;-59
2021/08/21 06:03:41;;;;;;;12.85;6.80;;;;;;;;;;4456766;32;20253;-59
2021/08/21 06:06:11;;;;;;;9.27;6.03;;;;;;;;;;4450545;32;20352;-60
2021/08/21 06:08:36;;;;;;;17.40;6.57;;;;;;;;;;4449666;32;20347;-59
2021/08/21 06:11:02;;;;;;;8.15;6.28;;;;;;;;;;4450623;32;20271;-60
2021/08/21 06:13:27;;;;;;;9.60;6.53;;;;;;;;;;4461956;32;20228;-60
2021/08/21 06:15:53;;;;;;;8.27;6.15;;;;;;;;;;4465120;32;20339;-59
2021/08/21 06:18:18;;;;;;;8.90;6.10;;;;;;;;;;4453858;32;20405;-59
2021/08/21 06:20:44;;;;;;;10.10;6.68;;;;;;;;;;4458004;32;20224;-59
2021/08/21 06:23:10;;;;;;;9.98;6.05;;;;;;;;;;4454542;32;20577;-60
2021/08/21 06:25:35;;;;;;;6.85;4.97;;;;;;;;;;4458343;32;20274;-60
2021/08/21 06:28:01;;;;;;;18.92;5.35;;;;;;;;;;4458279;32;20267;-60
2021/08/21 06:30:26;;;;;;;10.90;5.68;;;;;;;;;;4452401;32;20361;-60
2021/08/21 06:32:51;;;;;;;10.52;5.12;;;;;;;;;;4463273;32;20670;-60
2021/08/21 06:35:17;;;;;;;6.18;5.10;;;;;;;;;;4457728;32;20297;-60
2021/08/21 06:37:42;;;;;;;11.27;5.22;;;;;;;;;;4456680;32;20767;-59
2021/08/21 06:40:09;;;;;;;11.73;5.22;;;;;;;;;;4461771;32;20348;-59
2021/08/21 06:42:34;;;;;;;8.05;5.45;;;;;;;;;;4452462;32;20272;-62
2021/08/21 06:45:00;;;;;;;8.85;5.60;;;;;;;;;;4459063;32;20220;-57
2021/08/21 06:47:25;;;;;;;7.18;5.57;;;;;;;;;;4456528;32;20299;-59
2021/08/21 06:49:51;;;;;;;7.78;5.80;;;;;;;;;;4459717;32;20224;-59
2021/08/21 06:52:16;;;;;;;10.98;5.40;;;;;;;;;;4460773;32;20572;-59
2021/08/21 06:54:42;;;;;;;7.07;5.32;;;;;;;;;;4452668;32;20651;-60
2021/08/21 06:57:07;;;;;;;14.70;6.00;;;;;;;;;;4465011;32;20745;-59
2021/08/21 06:59:33;;;;;;;6.50;5.40;;;;;;;;;;4458442;32;20242;-58
2021/08/21 07:02:02;;;;;;;7.00;4.93;;;;;;;;;;4457469;32;20283;-59
2021/08/21 07:04:28;;;;;;;15.18;6.18;;;;;;;;;;4454826;32;20234;-59
2021/08/21 07:06:53;;;;;;;10.70;5.55;;;;;;;;;;4459459;32;20315;-59
2021/08/21 07:09:19;;;;;;;11.10;5.75;;;;;;;;;;4442468;32;20278;-60
2021/08/21 07:11:44;;;;;;;10.40;6.28;;;;;;;;;;4453458;32;20447;-60
2021/08/21 07:14:10;;;;;;;7.45;5.28;;;;;;;;;;4460645;32;20243;-59
2021/08/21 07:16:35;;;;;;;8.32;5.20;;;;;;;;;;4450625;32;20621;-60
2021/08/21 07:19:01;;;;;;;13.27;4.75;;;;;;;;;;4458457;32;20619;-60
2021/08/21 07:21:27;;;;;;;7.47;4.60;;;;;;;;;;4454341;32;20775;-60
2021/08/21 07:23:53;;;;;;;8.45;5.50;;;;;;;;;;4457934;32;20314;-60
2021/08/21 07:26:19;;;;;;;6.75;4.90;;;;;;;;;;4459612;32;20213;-60
2021/08/21 07:28:44;;;;;;;7.53;5.78;;;;;;;;;;4461503;32;20351;-60
2021/08/21 07:31:10;;;;;;;7.87;4.87;;;;;;;;;;4464097;32;20306;-60
2021/08/21 07:33:35;;;;;;;7.78;4.97;;;;;;;;;;4453980;32;20231;-60
2021/08/21 07:36:01;;;;;;;7.37;5.32;;;;;;;;;;4459547;32;20263;-60
2021/08/21 07:38:26;;;;;;;7.68;4.93;;;;;;;;;;4454087;32;20341;-60
2021/08/21 07:40:52;;;;;;;8.20;5.35;;;;;;;;;;4453314;32;20297;-60
2021/08/21 07:43:18;;;;;;;7.22;4.80;;;;;;;;;;4456952;32;20213;-60
2021/08/21 07:45:46;;;;;;;8.70;5.35;;;;;;;;;;4460597;32;20275;-61
2021/08/21 07:48:15;;;;;;;8.57;5.72;;;;;;;;;;4456144;32;20308;-59
2021/08/21 07:50:40;;;;;;;6.32;5.15;;;;;;;;;;4461554;32;20735;-59
2021/08/21 07:53:06;;;;;;;8.45;5.87;;;;;;;;;;4462438;32;20311;-60
2021/08/21 07:55:31;;;;;;;8.00;5.03;;;;;;;;;;4462849;32;20329;-59
2021/08/21 07:57:57;;;;;;;8.85;6.65;;;;;;;;;;4461954;32;20321;-60
2021/08/21 08:00:22;;;;;;;11.00;5.93;;;;;;;;;;4462118;32;20444;-59
2021/08/21 08:02:48;;;;;;;11.43;4.85;;;;;;;;;;4460322;32;20375;-60
2021/08/21 08:05:13;;;;;;;7.45;6.05;;;;;;;;;;4460246;32;20208;-59
2021/08/21 08:07:39;;;;;;;6.50;5.47;;;;;;;;;;4461892;32;20393;-59
2021/08/21 08:10:05;;;;;;;10.32;6.45;;;;;;;;;;4461848;32;20224;-59
2021/08/21 08:12:31;;;;;;;12.30;5.72;;;;;;;;;;4461465;32;20288;-59
2021/08/21 08:14:56;;;;;;;10.95;6.05;;;;;;;;;;4461716;32;20251;-59
2021/08/21 08:17:22;;;;;;;8.50;5.60;;;;;;;;;;4459634;32;20437;-59
2021/08/21 08:19:47;;;;;;;7.60;5.47;;;;;;;;;;4444909;32;20282;-60
2021/08/21 08:22:12;;;;;;;11.48;6.50;;;;;;;;;;4448125;32;20573;-59
2021/08/21 08:24:38;;;;;;;11.85;5.68;;;;;;;;;;4447987;32;20360;-60
2021/08/21 08:27:04;;;;;;;8.27;5.93;;;;;;;;;;4447704;32;20616;-60
2021/08/21 08:29:29;;;;;;;6.85;6.00;;;;;;;;;;4461723;32;20212;-60
2021/08/21 08:31:55;;;;;;;8.40;5.87;;;;;;;;;;4454393;32;20650;-60
2021/08/21 08:34:20;;;;;;;8.23;5.85;;;;;;;;;;4450235;32;20288;-60
2021/08/21 08:36:46;;;;;;;7.37;5.43;;;;;;;;;;4446364;32;20471;-60
2021/08/21 08:39:11;;;;;;;10.40;6.03;;;;;;;;;;4459778;32;20250;-59
2021/08/21 08:41:40;;;;;;;8.15;5.20;;;;;;;;;;4463514;32;20734;-60
2021/08/21 08:44:10;;;;;;;8.88;5.57;;;;;;;;;;4451779;32;20300;-60
2021/08/21 08:46:37;;;;;;;5.60;4.43;;;;;;;;;;4447177;32;20260;-60
2021/08/21 08:49:02;;;;;;;7.62;6.22;;;;;;;;;;4449736;32;20311;-60
2021/08/21 08:51:31;;;;;;;7.72;5.78;;;;;;;;;;4463014;32;20309;-61
2021/08/21 08:53:56;;;;;;;9.70;5.35;;;;;;;;;;4463028;32;20242;-60
2021/08/21 08:56:22;;;;;;;9.27;6.35;;;;;;;;;;4462933;32;20279;-60
2021/08/21 08:58:47;;;;;;;10.43;5.60;;;;;;;;;;4453526;32;20692;-60
2021/08/21 09:01:13;;;;;;;7.03;5.05;;;;;;;;;;4447921;32;20703;-60
2021/08/21 09:03:39;;;;;;;7.12;5.10;;;;;;;;;;4447367;32;20327;-60
2021/08/21 09:06:04;;;;;;;8.55;6.12;;;;;;;;;;4447923;32;20264;-61
2021/08/21 09:08:31;;;;;;;8.15;5.95;;;;;;;;;;4446967;32;20268;-61
2021/08/21 09:11:16;;;;;;;9.65;5.97;;;;;;;;;;4447596;32;20200;-61
2021/08/21 09:13:42;;;;;;;15.50;7.03;;;;;;;;;;4447506;32;20221;-61
2021/08/21 09:16:07;;;;;;;8.18;5.55;;;;;;;;;;4447434;32;20309;-60
2021/08/21 09:18:33;;;;;;;11.32;6.87;;;;;;;;;;4446805;32;20602;-61
2021/08/21 09:21:03;;;;;;;10.38;5.82;;;;;;;;;;4447684;32;20300;-61
2021/08/21 09:23:29;;;;;;;6.97;5.95;;;;;;;;;;4447314;32;20238;-59
2021/08/21 09:26:03;;;;;;;11.25;5.78;;;;;;;;;;4447991;32;20303;-60
2021/08/21 09:28:28;;;;;;;8.20;5.62;;;;;;;;;;4446588;32;20544;-60
2021/08/21 09:31:21;;;;;;;8.77;5.97;;;;;;;;;;4447523;32;20329;-60
2021/08/21 09:34:02;;;;;;;10.02;5.28;;;;;;;;;;4444571;32;20325;-61
2021/08/21 09:36:27;;;;;;;11.38;6.70;;;;;;;;;;4447671;32;20300;-60
2021/08/21 09:38:52;;;;;;;7.22;6.07;;;;;;;;;;4447019;32;20315;-60
2021/08/21 09:41:18;;;;;;;8.23;6.47;;;;;;;;;;4447554;32;20280;-60
2021/08/21 09:43:43;;;;;;;8.35;5.78;;;;;;;;;;4447281;32;20277;-60
2021/08/21 09:46:20;;;;;;;9.02;5.82;;;;;;;;;;4447452;32;20275;-60
2021/08/21 09:48:57;;;;;;;8.98;6.87;;;;;;;;;;4455329;32;20628;-60
2021/08/21 09:51:32;;;;;;;10.80;6.87;;;;;;;;;;4463312;32;20347;-59
2021/08/21 09:54:02;;;;;;;8.57;6.12;;;;;;;;;;4452082;32;20232;-60
2021/08/21 09:56:33;;;;;;;9.95;7.32;;;;;;;;;;4447282;32;20641;-59
2021/08/21 09:59:00;;;;;;;7.55;6.05;;;;;;;;;;4447620;32;20330;-59
2021/08/21 10:01:27;;;;;;;9.82;6.68;;;;;;;;;;4445756;32;20379;-59
2021/08/21 10:03:53;;;;;;;15.73;7.00;;;;;;;;;;4474706;31;20240;-60
2021/08/21 10:06:19;;;;;;;8.65;6.35;;;;;;;;;;4455884;32;20344;-59
2021/08/21 10:08:45;;;;;;;9.00;6.37;;;;;;;;;;4453715;32;20708;-59
2021/08/21 10:11:11;;;;;;;9.95;7.12;;;;;;;;;;4454704;32;20647;-59
2021/08/21 10:13:40;;;;;;;10.38;6.72;;;;;;;;;;4451652;32;20216;-60
2021/08/21 10:16:08;;;;;;;10.27;7.60;;;;;;;;;;4459482;32;20294;-60
2021/08/21 10:18:34;;;;;;;8.80;6.43;;;;;;;;;;4455877;32;20266;-60
2021/08/21 10:21:00;;;;;;;8.73;6.75;;;;;;;;;;4454497;32;20233;-59
2021/08/21 10:23:26;;;;;;;9.30;6.87;;;;;;;;;;4457819;32;20376;-59
2021/08/21 10:26:00;;;;;;;12.48;7.43;;;;;;;;;;4443968;32;20815;-60
2021/08/21 10:28:31;;;;;;;8.63;6.62;;;;;;;;;;4457172;32;20801;-60
2021/08/21 10:30:57;;;;;;;10.98;7.80;;;;;;;;;;4451954;32;20325;-61
2021/08/21 10:33:22;;;;;;;8.18;7.30;;;;;;;;;;4462423;32;20228;-60
2021/08/21 10:35:53;;;;;;;7.78;6.55;;;;;;;;;;4464536;32;20402;-61
2021/08/21 10:38:35;;;;;;;10.85;7.82;;;;;;;;;;4457454;32;20318;-59
2021/08/21 10:41:09;;;;;;;14.93;6.50;;;;;;;;;;4451870;32;20634;-58
2021/08/21 10:43:51;;;;;;;7.25;6.32;;;;;;;;;;4449322;32;20239;-59
2021/08/21 10:46:28;;;;;;;7.28;6.50;;;;;;;;;;4463340;32;20200;-60
2021/08/21 10:48:54;;;;;;;13.73;8.00;;;;;;;;;;4454989;32;20614;-60
2021/08/21 10:51:38;;;;;;;9.52;7.35;;;;;;;;;;4460419;32;20350;-60
2021/08/21 10:54:18;;;;;;;17.33;6.65;;;;;;;;;;4463947;32;20617;-60
2021/08/21 10:56:45;;;;;;;10.13;7.05;;;;;;;;;;4460811;32;20453;-59
2021/08/21 10:59:11;;;;;;;13.62;8.18;;;;;;;;;;4448318;32;20332;-59
2021/08/21 11:01:36;;;;;;;11.65;7.93;;;;;;;;;;4463012;32;20288;-59
2021/08/21 11:04:02;;;;;;;9.07;6.47;;;;;;;;;;4463639;32;20576;-58
2021/08/21 11:06:38;;;;;;;13.50;5.97;;;;;;;;;;4463160;32;20336;-58
2021/08/21 11:09:10;;;;;;;9.05;6.37;;;;;;;;;;4451536;32;20216;-59
2021/08/21 11:11:48;;;;;;;10.77;6.32;;;;;;;;;;4458121;32;20651;-59
2021/08/21 11:14:20;;;;;;;8.82;5.87;;;;;;;;;;4463227;32;20258;-59
2021/08/21 11:16:56;;;;;;;8.00;5.72;;;;;;;;;;4462608;32;20212;-59
2021/08/21 11:19:28;;;;;;;7.22;5.60;;;;;;;;;;4460065;32;20354;-59
2021/08/21 11:22:11;;;;;;;8.52;5.82;;;;;;;;;;4453855;32;20266;-59
2021/08/21 11:24:39;;;;;;;9.02;6.35;;;;;;;;;;4455659;32;20260;-58
2021/08/21 11:27:26;;;;;;;6.62;5.28;;;;;;;;;;4463401;32;20325;-59
2021/08/21 11:30:15;;;;;;;19.83;5.80;;;;;;;;;;4452927;32;20239;-59
2021/08/21 11:33:04;;;;;;;7.20;5.40;;;;;;;;;;4449970;32;20224;-58
2021/08/21 11:35:45;;;;;;;11.57;6.47;;;;;;;;;;4450196;32;20623;-58
2021/08/21 11:38:25;;;;;;;9.82;5.43;;;;;;;;;;4457515;32;20216;-58
2021/08/21 11:40:51;;;;;;;12.15;7.10;;;;;;;;;;4456110;32;20258;-58
2021/08/21 11:43:22;;;;;;;12.90;7.60;;;;;;;;;;4453280;32;20259;-58
2021/08/21 11:45:48;;;;;;;10.48;7.85;;;;;;;;;;4451689;32;20262;-58
2021/08/21 11:48:14;;;;;;;8.52;7.07;;;;;;;;;;4459393;32;20335;-58
2021/08/21 11:50:44;;;;;;;7.43;6.03;;;;;;;;;;4463580;32;20288;-58
2021/08/21 11:53:16;;;;;;;11.25;7.18;;;;;;;;;;4462962;32;20236;-58
2021/08/21 11:55:42;;;;;;;14.77;7.25;;;;;;;;;;4450879;32;20668;-58
2021/08/21 11:58:10;;;;;;;8.98;6.72;;;;;;;;;;4457933;32;20269;-57
2021/08/21 12:00:39;;;;;;;9.02;7.50;;;;;;;;;;4454802;32;20601;-58
2021/08/21 12:03:08;;;;;;;10.25;7.55;;;;;;;;;;4449937;32;20327;-58
2021/08/21 12:05:36;;;;;;;9.65;6.22;;;;;;;;;;4461827;32;20295;-58
2021/08/21 12:08:18;;;;;;;7.95;6.07;;;;;;;;;;4457886;32;20192;-58
2021/08/21 12:11:04;;;;;;;7.18;5.25;;;;;;;;;;4449969;32;20240;-58
2021/08/21 12:13:32;;;;;;;5.87;4.62;;;;;;;;;;4449253;32;20290;-58
2021/08/21 12:16:04;;;;;;;10.38;5.43;;;;;;;;;;4462638;32;20204;-58
2021/08/21 12:18:33;;;;;;;11.60;4.95;;;;;;;;;;4453642;32;20380;-58
2021/08/21 12:20:58;;;;;;;6.47;4.85;;;;;;;;;;4450959;32;20219;-58
2021/08/21 12:23:24;;;;;;;5.03;4.53;;;;;;;;;;4448012;32;20267;-59
2021/08/21 12:25:53;;;;;;;14.05;5.78;;;;;;;;;;4462226;32;20283;-60
2021/08/21 12:28:23;;;;;;;5.95;5.05;;;;;;;;;;4455445;32;20303;-58
2021/08/21 12:31:00;;;;;;;8.27;4.57;;;;;;;;;;4457164;32;20648;-58
2021/08/21 12:33:34;;;;;;;12.23;5.45;;;;;;;;;;4461471;32;20300;-58
2021/08/21 12:36:19;;;;;;;5.95;5.32;;;;;;;;;;4461988;32;20319;-58
2021/08/21 12:39:09;;;;;;;6.95;5.37;;;;;;;;;;4461479;32;20223;-59
2021/08/21 12:41:49;;;;;;;9.05;6.28;;;;;;;;;;4455344;32;20641;-59
2021/08/21 12:44:16;;;;;;;7.10;5.62;;;;;;;;;;4461350;32;20300;-58
2021/08/21 12:46:53;;;;;;;13.95;6.43;;;;;;;;;;4461276;32;20254;-59
2021/08/21 12:49:29;;;;;;;9.38;5.90;;;;;;;;;;4448386;32;20687;-58
2021/08/21 12:51:57;;;;;;;8.05;5.82;;;;;;;;;;4452647;32;20244;-59
2021/08/21 12:54:34;;;;;;;10.57;5.78;;;;;;;;;;4453729;32;20235;-58
2021/08/21 12:57:07;;;;;;;5.87;5.28;;;;;;;;;;4462172;32;20219;-58
2021/08/21 12:59:33;;;;;;;7.75;6.15;;;;;;;;;;4461918;32;20239;-58
2021/08/21 13:02:12;;;;;;;6.87;5.68;;;;;;;;;;4458672;32;20359;-58
2021/08/21 13:04:39;;;;;;;7.28;6.05;;;;;;;;;;4447538;32;20229;-58
2021/08/21 13:07:08;;;;;;;7.62;6.25;;;;;;;;;;4457375;32;20227;-58
2021/08/21 13:09:34;;;;;;;6.93;5.43;;;;;;;;;;4459663;32;20196;-58
2021/08/21 13:12:00;;;;;;;9.30;5.62;;;;;;;;;;4457729;32;20342;-60
2021/08/21 13:14:26;;;;;;;12.05;6.25;;;;;;;;;;4461703;32;20224;-56
2021/08/21 13:16:52;;;;;;;10.38;6.37;;;;;;;;;;4461172;32;20283;-57
2021/08/21 13:19:18;;;;;;;7.62;6.35;;;;;;;;;;4460173;32;20258;-55
2021/08/21 13:21:44;;;;;;;11.90;6.90;;;;;;;;;;4457203;32;20282;-57
2021/08/21 13:24:09;;;;;;;10.05;5.82;;;;;;;;;;4452737;32;20311;-56
2021/08/21 13:26:35;;;;;;;7.97;6.45;;;;;;;;;;4454313;32;20275;-56
2021/08/21 13:29:03;;;;;;;10.50;6.80;;;;;;;;;;4455007;32;20317;-57
2021/08/21 13:31:28;;;;;;;9.60;5.62;;;;;;;;;;4460812;32;20412;-55
2021/08/21 13:33:54;;;;;;;11.93;7.47;;;;;;;;;;4463444;32;20455;-56
2021/08/21 13:36:19;;;;;;;9.73;6.65;;;;;;;;;;4464362;32;20283;-56
2021/08/21 13:38:45;;;;;;;9.35;6.32;;;;;;;;;;4455325;32;20716;-56
2021/08/21 13:41:10;;;;;;;12.15;7.00;;;;;;;;;;4461397;32;20298;-55
2021/08/21 13:43:35;;;;;;;11.38;7.47;;;;;;;;;;4465178;32;20241;-55
2021/08/21 13:46:02;;;;;;;9.35;7.32;;;;;;;;;;4464673;32;20359;-55
2021/08/21 13:48:27;;;;;;;9.27;6.78;;;;;;;;;;4461973;32;20395;-55
2021/08/21 13:50:53;;;;;;;10.95;7.60;;;;;;;;;;4465527;32;20263;-56
2021/08/21 13:53:18;;;;;;;9.18;7.18;;;;;;;;;;4465601;32;20699;-56
2021/08/21 13:55:44;;;;;;;11.88;8.55;;;;;;;;;;4464374;32;20343;-56
2021/08/21 13:58:10;;;;;;;8.18;6.68;;;;;;;;;;4459077;32;20274;-56
2021/08/21 14:00:35;;;;;;;13.05;7.65;;;;;;;;;;4458384;32;20318;-56
2021/08/21 14:03:01;;;;;;;9.60;7.57;;;;;;;;;;4453267;32;20326;-56
2021/08/21 14:05:27;;;;;;;10.40;7.47;;;;;;;;;;4463205;32;20617;-55
2021/08/21 14:07:52;;;;;;;8.88;7.85;;;;;;;;;;4460886;32;20283;-56
2021/08/21 14:10:17;;;;;;;14.70;9.07;;;;;;;;;;4455933;32;20508;-56
2021/08/21 14:12:43;;;;;;;43.42;18.30;;;;;;;;;;4462796;32;20220;-56
2021/08/21 14:15:09;;;;;;;54.90;22.70;;;;;;;;;;4462882;32;20374;-57
2021/08/21 14:17:35;;;;;;;54.75;24.52;;;;;;;;;;4452600;32;20765;-56
2021/08/21 14:20:01;;;;;;;49.00;20.37;;;;;;;;;;4453476;32;20369;-57
2021/08/21 14:22:29;;;;;;;9.52;7.35;;;;;;;;;;4464175;32;20327;-56
2021/08/21 14:24:55;;;;;;;9.50;6.35;;;;;;;;;;4452013;32;20258;-56
2021/08/21 14:27:20;;;;;;;15.05;9.70;;;;;;;;;;4460734;32;20700;-55
2021/08/21 14:29:46;;;;;;;11.38;7.72;;;;;;;;;;4448624;32;20687;-56
2021/08/21 14:32:11;;;;;;;17.00;9.43;;;;;;;;;;4450692;32;20378;-56
2021/08/21 14:34:37;;;;;;;18.60;9.80;;;;;;;;;;4454821;32;20208;-56
2021/08/21 14:37:03;;;;;;;16.73;10.15;;;;;;;;;;4459443;32;20274;-56
2021/08/21 14:39:29;;;;;;;12.40;8.70;;;;;;;;;;4462625;32;20321;-56
2021/08/21 14:41:54;;;;;;;12.25;9.07;;;;;;;;;;4454975;32;20711;-56
2021/08/21 14:44:20;;;;;;;9.55;7.90;;;;;;;;;;4455841;32;20443;-56